Time;durP1;ratioP1;P1;durP2;ratioP2;P2;SDS_P1;SDS_P2;PMS_P1;PMS_P2;Temp;Humidity;BMP_temperature;BMP_pressure;BME280_temperature;BME280_humidity;BME280_pressure;Samples;Min_cycle;Max_cycle;Signal;HPM_P1;HPM_P2
2022/01/26 00:06:46;;;;;;;;;;;5.30;99.90;;;3.29;97.50;102199.31;4972202;28;19929;-84
2022/01/26 00:09:15;;;;;;;;;;;5.40;99.90;;;3.24;97.52;102198.75;4971893;28;20017;-83
2022/01/26 00:11:42;;;;;;;;;;;5.30;99.90;;;3.26;97.09;102216.53;4971749;28;20829;-83
2022/01/26 00:14:12;;;;;;;;;;;5.30;99.90;;;3.28;97.68;102211.91;4971864;28;19926;-84
2022/01/26 00:16:41;;;;;;;;;;;5.40;99.90;;;3.17;97.46;102206.34;4971980;28;20334;-83
2022/01/26 00:19:12;;;;;;;;;;;5.30;99.90;;;3.27;97.45;102204.78;4971756;28;20362;-83
2022/01/26 00:21:44;;;;;;;;;;;5.30;99.90;;;3.34;98.21;102202.59;4971625;28;20390;-83
2022/01/26 00:24:27;;;;;;;;;;;5.30;99.90;;;3.35;97.88;102214.22;4971801;28;19980;-83
2022/01/26 00:29:47;;;;;;;;;;;5.30;99.90;;;3.28;97.65;102209.22;4970527;28;20008;-84
2022/01/26 00:40:34;;;;;;;;;;;5.30;99.90;;;3.16;97.39;102204.63;4971286;28;19925;-84
2022/01/26 00:43:11;;;;;;;;;;;5.30;99.90;;;3.22;97.45;102208.72;4971571;28;20569;-83
2022/01/26 00:45:38;;;;;;;;;;;5.30;99.90;;;3.31;97.07;102208.16;4952288;29;20382;-83
2022/01/26 00:48:08;;;;;;;;;;;5.40;99.90;;;3.29;97.13;102205.59;4963405;28;19953;-84
2022/01/26 00:50:37;;;;;;;;;;;5.30;99.90;;;3.31;97.32;102213.53;4971108;28;19977;-83
2022/01/26 00:53:05;;;;;;;;;;;5.30;99.90;;;3.08;96.93;102202.38;4971561;28;19926;-83
2022/01/26 00:55:32;;;;;;;;;;;5.30;99.90;;;3.10;97.87;102196.91;4971403;28;20541;-83
2022/01/26 00:57:59;;;;;;;;;;;5.30;99.90;;;3.08;96.96;102204.19;4971252;28;19940;-83
2022/01/26 01:00:29;;;;;;;;;;;5.30;99.90;;;3.10;97.93;102195.09;4971190;28;20474;-83
2022/01/26 01:02:57;;;;;;;;;;;5.30;99.90;;;3.11;97.58;102194.13;4957186;28;19986;-83
2022/01/26 01:05:29;;;;;;;;;;;5.30;99.90;;;3.13;96.90;102189.50;4955100;28;19922;-82
2022/01/26 01:08:02;;;;;;;;;;;5.30;99.90;;;3.17;97.04;102183.94;4971123;28;20397;-83
2022/01/26 01:10:29;;;;;;;;;;;5.30;99.90;;;3.13;97.70;102189.50;4970787;28;19984;-83
2022/01/26 01:12:58;;;;;;;;;;;5.30;99.90;;;3.17;98.05;102181.25;4970992;28;19930;-83
2022/01/26 01:15:27;;;;;;;;;;;5.30;99.90;;;3.24;98.03;102193.38;4971244;28;19926;-83
2022/01/26 01:18:05;;;;;;;;;;;5.30;99.90;;;3.20;97.55;102194.50;4970929;28;19961;-83
2022/01/26 01:20:52;;;;;;;;;;;5.30;99.90;;;3.09;97.55;102187.97;4969454;28;20351;-83
2022/01/26 01:26:36;;;;;;;;;;;5.30;99.90;;;3.08;97.24;102197.00;4964633;28;19933;-83
2022/01/26 01:29:19;;;;;;;;;;;5.30;99.90;;;3.10;96.80;102196.91;4970785;28;19930;-84
2022/01/26 01:31:49;;;;;;;;;;;5.30;99.90;;;3.17;96.64;102200.94;4970614;28;20386;-83
2022/01/26 01:34:19;;;;;;;;;;;5.20;99.90;;;3.09;97.12;102204.13;4971085;28;19926;-83
2022/01/26 01:36:50;;;;;;;;;;;5.20;99.90;;;3.07;96.36;102200.66;4970534;28;19926;-83
2022/01/26 01:39:17;;;;;;;;;;;5.20;99.90;;;3.08;96.51;102202.38;4970554;28;19926;-83
2022/01/26 01:41:46;;;;;;;;;;;5.20;99.90;;;3.05;96.46;102196.34;4970701;28;19926;-84
2022/01/26 01:44:14;;;;;;;;;;;5.20;99.90;;;3.03;96.96;102193.75;4970796;28;19937;-83
2022/01/26 01:46:42;;;;;;;;;;;5.20;99.90;;;3.01;96.96;102192.97;4971025;28;20367;-83
2022/01/26 01:49:11;;;;;;;;;;;5.20;99.90;;;2.99;96.66;102192.22;4969779;28;19926;-83
2022/01/26 01:51:44;;;;;;;;;;;5.20;99.90;;;3.07;96.92;102200.66;4970450;28;19960;-84
2022/01/26 01:54:14;;;;;;;;;;;5.20;99.90;;;3.05;95.80;102191.81;4969512;28;19922;-83
2022/01/26 01:56:42;;;;;;;;;;;5.20;99.90;;;3.02;96.71;102197.38;4970576;28;19929;-83
2022/01/26 01:59:10;;;;;;;;;;;5.20;99.90;;;3.02;96.91;102185.75;4970306;28;19961;-83
2022/01/26 02:01:38;;;;;;;;;;;5.10;99.90;;;3.08;97.03;102175.47;4970802;28;19925;-83
2022/01/26 02:04:05;;;;;;;;;;;5.20;99.90;;;3.02;96.25;102183.06;4955814;28;19929;-83
2022/01/26 02:06:32;;;;;;;;;;;5.20;99.90;;;2.93;96.63;102192.56;4970106;28;20405;-83
2022/01/26 02:09:00;;;;;;;;;;;5.20;99.90;;;2.90;96.70;102192.75;4970537;28;19933;-83
2022/01/26 02:11:27;;;;;;;;;;;5.20;99.90;;;2.97;96.79;102194.13;4970361;28;20425;-83
2022/01/26 02:14:01;;;;;;;;;;;5.10;99.90;;;3.01;96.86;102190.28;4967692;28;20402;-83
2022/01/26 02:16:33;;;;;;;;;;;5.20;99.90;;;2.92;96.78;102186.31;4970974;28;19926;-83
2022/01/26 02:19:28;;;;;;;;;;;5.20;99.90;;;2.97;97.21;102178.00;4973679;28;19926;-83
2022/01/26 02:52:28;;;;;;;;;;;5.10;99.90;;;2.98;96.07;102151.94;4949114;28;19926;-83
2022/01/26 02:57:49;;;;;;;;;;;5.10;99.90;;;2.97;95.90;102156.47;4971429;28;20019;-84
2022/01/26 03:00:21;;;;;;;;;;;5.10;99.90;;;2.85;96.95;102150.00;4973125;28;19932;-83
2022/01/26 03:02:53;;;;;;;;;;;5.10;99.90;;;2.83;96.35;102134.94;4972912;28;19961;-83
2022/01/26 03:05:25;;;;;;;;;;;5.10;99.90;;;2.83;95.87;102133.09;4967065;28;19970;-83
2022/01/26 03:07:56;;;;;;;;;;;5.10;99.90;;;2.91;97.01;102127.25;4954030;28;19923;-83
2022/01/26 03:10:33;;;;;;;;;;;5.10;99.90;;;2.89;96.09;102127.38;4984188;28;20387;-83
2022/01/26 03:13:04;;;;;;;;;;;5.10;99.90;;;2.93;95.80;102122.63;4961688;28;20398;-83
2022/01/26 03:15:36;;;;;;;;;;;5.10;99.90;;;2.90;95.21;102117.47;4973276;28;19922;-83
2022/01/26 03:18:27;;;;;;;;;;;5.10;99.90;;;2.92;94.99;102115.53;4969373;28;20390;-83
2022/01/26 03:20:57;;;;;;;;;;;5.00;99.90;;;2.90;95.31;102121.00;4966035;28;19930;-83
2022/01/26 03:34:18;;;;;;;;;;;5.10;99.90;;;2.91;95.28;102095.88;4972282;28;19929;-83
2022/01/26 03:36:49;;;;;;;;;;;5.10;99.90;;;2.88;95.83;102096.03;4972510;28;19930;-83
2022/01/26 03:39:19;;;;;;;;;;;5.00;99.90;;;2.90;95.93;102085.19;4972506;28;19957;-83
2022/01/26 03:41:50;;;;;;;;;;;5.00;99.90;;;2.95;95.78;102085.75;4970507;28;20009;-83
2022/01/26 03:44:18;;;;;;;;;;;5.00;99.90;;;3.01;95.92;102092.56;4971073;28;20388;-83
2022/01/26 03:46:46;;;;;;;;;;;5.00;99.90;;;3.05;95.75;102094.13;4971139;28;19930;-83
2022/01/26 03:49:13;;;;;;;;;;;5.00;99.90;;;2.94;96.33;102109.09;4972167;28;19922;-83
2022/01/26 03:51:41;;;;;;;;;;;5.00;99.90;;;2.87;96.69;102096.13;4951734;29;19926;-83
2022/01/26 03:54:09;;;;;;;;;;;5.00;99.90;;;2.82;97.07;102096.44;4963047;28;20009;-83
2022/01/26 03:56:36;;;;;;;;;;;5.00;99.90;;;2.84;97.68;102090.97;4972178;28;19925;-83
2022/01/26 03:59:05;;;;;;;;;;;5.00;99.90;;;2.87;96.78;102096.13;4971819;28;19989;-84
2022/01/26 04:01:33;;;;;;;;;;;5.00;99.90;;;2.92;97.20;102092.19;4972153;28;20381;-83
2022/01/26 04:04:01;;;;;;;;;;;5.00;99.90;;;2.95;97.02;102099.19;4970642;28;20008;-83
2022/01/26 04:06:29;;;;;;;;;;;5.00;99.90;;;3.00;96.95;102107.84;4971872;28;19925;-83
2022/01/26 04:08:56;;;;;;;;;;;5.00;99.90;;;2.86;96.88;102111.41;4971697;28;19926;-83
2022/01/26 04:11:34;;;;;;;;;;;5.00;99.90;;;2.97;97.56;102108.06;4971556;28;20017;-83
2022/01/26 04:14:04;;;;;;;;;;;5.00;99.90;;;2.97;97.15;102113.44;4971926;28;20343;-83
2022/01/26 04:16:33;;;;;;;;;;;5.00;99.90;;;2.91;96.86;102108.44;4971778;28;19922;-83
2022/01/26 04:19:00;;;;;;;;;;;5.00;99.90;;;2.95;97.25;102118.03;4971995;28;19969;-83
2022/01/26 04:21:38;;;;;;;;;;;5.00;99.90;;;2.95;96.80;102115.34;4971498;28;19928;-83
2022/01/26 04:24:11;;;;;;;;;;;5.00;99.90;;;2.82;97.24;102125.13;4971728;28;19936;-84
2022/01/26 04:26:45;;;;;;;;;;;5.00;99.90;;;2.84;96.51;102131.31;4971972;28;19925;-83
2022/01/26 04:29:17;;;;;;;;;;;5.00;99.90;;;2.84;97.61;102128.63;4971143;28;19922;-83
2022/01/26 04:31:46;;;;;;;;;;;5.00;99.90;;;2.73;97.20;102130.13;4970948;28;20004;-83
2022/01/26 04:34:13;;;;;;;;;;;5.00;99.90;;;2.62;96.62;102124.53;4971631;28;20392;-83
2022/01/26 04:36:46;;;;;;;;;;;5.00;99.90;;;2.68;96.87;102131.34;4971620;28;19926;-83
2022/01/26 04:39:18;;;;;;;;;;;5.00;99.90;;;2.69;98.27;102128.56;4970608;28;19922;-83
2022/01/26 04:41:50;;;;;;;;;;;5.00;99.90;;;2.80;97.42;102127.03;4971522;28;20366;-84
2022/01/26 04:44:21;;;;;;;;;;;5.00;99.90;;;2.86;97.71;102121.31;4971082;28;19926;-83
2022/01/26 04:46:50;;;;;;;;;;;5.00;99.90;;;2.83;96.77;102127.72;4969686;28;20004;-83
2022/01/26 04:49:17;;;;;;;;;;;5.00;99.90;;;2.79;97.32;102120.81;4971031;28;19929;-83
2022/01/26 04:51:45;;;;;;;;;;;4.90;99.90;;;2.87;96.94;102126.56;4970984;28;20496;-83
2022/01/26 04:54:12;;;;;;;;;;;5.00;99.90;;;2.84;97.38;102117.84;4971106;28;20382;-83
2022/01/26 04:56:40;;;;;;;;;;;5.00;99.90;;;2.83;97.32;102126.88;4971198;28;19985;-83
2022/01/26 04:59:07;;;;;;;;;;;5.00;99.90;;;2.82;97.76;102126.00;4970528;28;19922;-83
2022/01/26 05:01:34;;;;;;;;;;;5.00;99.90;;;2.81;97.63;102118.03;4970854;28;20031;-83
2022/01/26 05:04:03;;;;;;;;;;;5.00;99.90;;;2.83;97.20;102116.13;4969735;28;19957;-83
2022/01/26 05:06:30;;;;;;;;;;;5.00;99.90;;;2.86;96.97;102121.31;4969891;28;20302;-83
2022/01/26 05:08:57;;;;;;;;;;;4.90;99.90;;;2.76;96.50;102125.50;4970564;28;19922;-87
2022/01/26 05:11:32;;;;;;;;;;;5.00;99.90;;;2.69;96.99;102123.19;4970784;28;19926;-85
2022/01/26 05:13:59;;;;;;;;;;;5.00;99.90;;;2.76;98.14;102134.47;4973125;28;19922;-92
2022/01/26 05:16:28;;;;;;;;;;;5.00;99.90;;;2.83;97.41;102148.38;4960646;28;19926;-91
2022/01/26 05:18:56;;;;;;;;;;;4.90;99.90;;;2.87;97.08;102152.59;4954898;28;19930;-90
2022/01/26 05:24:03;;;;;;;;;;;4.90;99.90;;;2.79;96.81;102154.91;4957065;28;19922;-86
2022/01/26 05:26:30;;;;;;;;;;;4.90;99.90;;;2.77;97.32;102149.63;4940878;29;19970;-85
2022/01/26 05:28:57;;;;;;;;;;;4.90;99.90;;;2.72;97.81;102151.72;4933304;29;19934;-87
2022/01/26 05:31:24;;;;;;;;;;;5.00;99.90;;;2.71;97.50;102148.16;4941960;29;19929;-86
2022/01/26 05:33:51;;;;;;;;;;;5.00;99.90;;;2.68;97.14;102145.66;4941320;28;19927;-85
2022/01/26 05:36:18;;;;;;;;;;;5.00;99.90;;;2.72;97.46;102149.03;4964602;28;19922;-86
2022/01/26 05:38:47;;;;;;;;;;;5.20;99.90;;;2.80;97.75;102149.44;4942483;29;19933;-87
2022/01/26 05:41:14;;;;;;;;;;;4.90;99.90;;;2.85;97.79;102147.31;4943502;29;19930;-86
2022/01/26 05:43:42;;;;;;;;;;;4.90;99.90;;;2.71;97.51;102137.41;4939482;28;19942;-86
2022/01/26 05:46:13;;;;;;;;;;;4.90;99.90;;;2.73;97.86;102140.88;4949293;29;19923;-85
2022/01/26 05:48:44;;;;;;;;;;;4.90;99.90;;;2.71;97.44;102136.56;4931583;29;20077;-86
2022/01/26 05:51:11;;;;;;;;;;;4.90;99.90;;;2.82;97.72;102138.56;4933073;29;20351;-86
2022/01/26 05:53:40;;;;;;;;;;;4.90;99.90;;;2.74;96.45;102134.53;4936125;29;20017;-85
2022/01/26 05:56:08;;;;;;;;;;;5.00;99.90;;;2.73;97.21;102137.31;4948625;29;19932;-86
2022/01/26 05:58:36;;;;;;;;;;;4.90;99.90;;;2.65;97.25;102123.50;4951180;29;19965;-85
2022/01/26 06:01:03;;;;;;;;;;;5.00;99.90;;;2.64;96.96;102117.22;4935922;29;19958;-86
2022/01/26 06:03:30;;;;;;;;;;;4.90;99.90;;;2.62;97.85;102107.53;4948845;29;19931;-87
2022/01/26 06:05:58;;;;;;;;;;;5.10;99.90;;;2.61;97.47;102109.38;4951063;29;19944;-86
2022/01/26 06:08:26;;;;;;;;;;;4.90;99.90;;;2.55;97.68;102090.91;4953167;29;20573;-86
2022/01/26 06:10:55;;;;;;;;;;;4.90;99.90;;;2.55;96.86;102080.16;4950926;29;20033;-86
2022/01/26 06:13:23;;;;;;;;;;;4.90;99.90;;;2.57;97.11;102091.72;4947544;28;19926;-86
2022/01/26 06:15:50;;;;;;;;;;;4.90;99.90;;;2.48;97.16;102103.00;4937636;29;20026;-87
2022/01/26 06:18:17;;;;;;;;;;;4.90;99.90;;;2.57;98.31;102115.91;4935630;29;19926;-86
2022/01/26 06:20:47;;;;;;;;;;;4.90;99.90;;;2.54;97.54;102108.88;4938567;29;20393;-87
2022/01/26 06:23:15;;;;;;;;;;;4.90;99.90;;;2.48;97.80;102120.00;4936690;29;19945;-86
2022/01/26 06:25:42;;;;;;;;;;;4.80;99.90;;;2.51;97.62;102125.19;4949417;29;19933;-86
2022/01/26 06:28:12;;;;;;;;;;;4.90;99.90;;;2.44;97.66;102114.91;4944071;29;20043;-86
2022/01/26 06:30:45;;;;;;;;;;;4.80;99.90;;;2.58;97.54;102128.38;4934710;29;19922;-86
2022/01/26 06:33:13;;;;;;;;;;;4.80;99.90;;;2.62;97.75;102126.34;4919920;29;20013;-86
2022/01/26 06:35:41;;;;;;;;;;;4.80;99.90;;;2.54;96.91;102119.63;4943167;29;19970;-86
2022/01/26 06:38:08;;;;;;;;;;;4.80;99.90;;;2.53;96.64;102128.66;4945875;29;20013;-86
2022/01/26 06:40:35;;;;;;;;;;;4.80;99.90;;;2.45;96.77;102136.28;4946593;29;19927;-86
2022/01/26 06:43:08;;;;;;;;;;;4.80;99.90;;;2.41;97.91;102153.56;4935413;28;19935;-85
2022/01/26 06:45:39;;;;;;;;;;;4.80;99.90;;;2.51;97.62;102132.38;4946283;29;19989;-85
2022/01/26 06:50:52;;;;;;;;;;;4.80;99.90;;;2.53;96.83;102108.97;4954608;29;19969;-87
2022/01/26 06:53:19;;;;;;;;;;;4.80;99.90;;;2.58;96.71;102111.38;4939340;28;19991;-86
2022/01/26 06:55:46;;;;;;;;;;;4.70;99.90;;;2.52;97.36;102112.63;4939897;29;19973;-86
2022/01/26 06:58:13;;;;;;;;;;;4.70;99.90;;;2.52;97.61;102094.66;4954041;29;19923;-86
2022/01/26 07:00:40;;;;;;;;;;;4.80;99.90;;;2.55;97.45;102096.28;4952687;29;20021;-86
2022/01/26 07:03:09;;;;;;;;;;;4.70;99.90;;;2.43;96.29;102103.28;4948368;28;19926;-85
2022/01/26 07:05:36;;;;;;;;;;;4.80;99.90;;;2.47;97.67;102101.28;4933862;29;19986;-86
2022/01/26 07:08:04;;;;;;;;;;;4.80;99.90;;;2.54;97.36;102110.69;4944376;29;20016;-86
2022/01/26 07:10:31;;;;;;;;;;;4.70;99.90;;;2.47;97.13;102125.47;4934046;29;20037;-86
2022/01/26 07:13:01;;;;;;;;;;;4.70;99.90;;;2.38;96.93;102128.69;4933920;28;20344;-85
2022/01/26 07:23:44;;;;;;;;;;;4.80;99.90;;;2.43;97.81;102129.28;4951879;29;20145;-86
2022/01/26 07:26:11;;;;;;;;;;;4.70;99.90;;;2.39;97.92;102128.59;4953503;29;19934;-86
2022/01/26 07:28:39;;;;;;;;;;;4.80;99.90;;;2.51;97.09;102132.38;4936238;28;19931;-83
2022/01/26 07:31:07;;;;;;;;;;;4.70;99.90;;;2.53;97.81;102114.31;4935656;29;19926;-83
2022/01/26 07:33:37;;;;;;;;;;;4.80;99.90;;;2.60;96.74;102123.75;4949551;28;19933;-82
2022/01/26 07:36:05;;;;;;;;;;;4.80;99.90;;;2.67;97.27;102121.56;4946565;29;19930;-83
2022/01/26 07:38:32;;;;;;;;;;;4.80;99.90;;;2.70;96.93;102124.94;4952974;29;19981;-83
2022/01/26 07:40:59;;;;;;;;;;;4.80;99.90;;;2.68;96.92;102109.84;4941244;29;19945;-83
2022/01/26 07:43:27;;;;;;;;;;;4.80;99.90;;;2.53;96.90;102103.59;4935000;29;20041;-83
2022/01/26 07:45:54;;;;;;;;;;;4.80;99.90;;;2.44;96.94;102114.91;4934000;29;19926;-83
2022/01/26 07:48:22;;;;;;;;;;;4.80;99.90;;;2.51;97.74;102116.25;4935225;29;19923;-83
2022/01/26 07:50:52;;;;;;;;;;;4.80;99.90;;;2.54;96.63;102132.19;4933843;29;19925;-83
2022/01/26 07:53:19;;;;;;;;;;;4.80;99.90;;;2.51;97.83;102137.75;4934728;29;20014;-83
2022/01/26 07:55:48;;;;;;;;;;;4.80;99.90;;;2.48;97.83;102144.19;4933733;29;19927;-82
2022/01/26 07:58:15;;;;;;;;;;;4.80;99.90;;;2.59;97.88;102145.34;4936102;28;19922;-82
2022/01/26 08:00:42;;;;;;;;;;;4.80;99.90;;;2.58;98.32;102130.19;4942263;29;19923;-82
2022/01/26 08:03:09;;;;;;;;;;;4.80;99.90;;;2.48;97.88;102101.19;4933510;29;20022;-82
2022/01/26 08:05:37;;;;;;;;;;;4.80;99.90;;;2.49;97.94;102102.03;4937548;29;19926;-82
2022/01/26 08:08:06;;;;;;;;;;;4.80;99.90;;;2.52;97.46;102116.16;4952399;29;20344;-84
2022/01/26 08:10:33;;;;;;;;;;;4.80;99.90;;;2.54;98.36;102116.06;4950853;29;19990;-82
2022/01/26 08:13:00;;;;;;;;;;;4.80;99.90;;;2.46;97.77;102108.47;4952324;28;19923;-82
2022/01/26 08:15:28;;;;;;;;;;;4.70;99.90;;;2.53;98.70;102100.91;4950269;28;19932;-82
2022/01/26 08:17:55;;;;;;;;;;;4.80;99.90;;;2.45;98.78;102122.00;4937322;28;19962;-82
2022/01/26 08:20:22;;;;;;;;;;;4.80;99.90;;;2.42;99.11;102132.91;4933398;29;19934;-82
2022/01/26 08:22:51;;;;;;;;;;;4.80;99.90;;;2.52;98.95;102134.13;4932990;29;19926;-82
2022/01/26 08:25:20;;;;;;;;;;;4.80;99.90;;;2.49;98.96;102136.97;4932941;29;19926;-82
2022/01/26 08:27:54;;;;;;;;;;;4.70;99.90;;;2.50;98.82;102136.88;4914339;29;20034;-82
2022/01/26 08:30:21;;;;;;;;;;;4.70;99.90;;;2.46;98.95;102139.88;4913905;29;19930;-82
2022/01/26 08:32:48;;;;;;;;;;;4.70;99.90;;;2.48;98.44;102128.06;4951574;28;19930;-82
2022/01/26 08:35:16;;;;;;;;;;;4.70;99.90;;;2.44;99.03;102136.41;4935312;29;19929;-82
2022/01/26 08:37:43;;;;;;;;;;;4.80;99.90;;;2.56;99.26;102145.56;4950429;29;19933;-82
2022/01/26 08:40:11;;;;;;;;;;;4.80;99.90;;;2.61;99.42;102149.69;4932494;29;19926;-83
2022/01/26 08:42:41;;;;;;;;;;;4.80;99.90;;;2.68;98.75;102169.84;4933003;29;19982;-83
2022/01/26 08:45:09;;;;;;;;;;;4.80;99.90;;;2.52;98.70;102171.75;4932924;29;20026;-82
2022/01/26 08:47:36;;;;;;;;;;;4.70;99.90;;;2.48;98.51;102175.56;4948980;29;19942;-82
2022/01/26 08:50:04;;;;;;;;;;;4.80;99.90;;;2.43;99.22;102169.59;4948099;29;20013;-82
2022/01/26 08:52:31;;;;;;;;;;;4.80;99.90;;;2.53;98.99;102151.94;4932796;29;20393;-83
2022/01/26 08:54:58;;;;;;;;;;;4.80;99.90;;;2.61;98.63;102148.81;4933811;29;20043;-82
2022/01/26 08:57:25;;;;;;;;;;;4.80;99.90;;;2.66;99.16;102146.72;4948651;29;19922;-83
2022/01/26 08:59:54;;;;;;;;;;;4.80;99.90;;;2.68;99.11;102156.41;4950812;28;19969;-85
2022/01/26 09:02:21;;;;;;;;;;;4.80;99.90;;;2.67;99.28;102167.28;4932109;29;20276;-86
2022/01/26 09:04:48;;;;;;;;;;;4.80;99.90;;;2.67;99.17;102173.50;4931365;29;19930;-85
2022/01/26 09:07:16;;;;;;;;;;;4.80;99.90;;;2.67;99.11;102169.97;4949861;29;19923;-85
2022/01/26 09:09:45;;;;;;;;;;;4.80;99.90;;;2.70;99.25;102173.34;4937058;29;19922;-85
2022/01/26 09:12:13;;;;;;;;;;;4.80;99.90;;;2.70;99.23;102176.03;4940323;29;20013;-84
2022/01/26 09:14:41;;;;;;;;;;;4.80;99.90;;;2.71;99.65;102180.41;4931537;29;20351;-84
2022/01/26 09:17:11;;;;;;;;;;;4.80;99.90;;;2.76;99.57;102184.66;4940045;29;20357;-82
2022/01/26 09:19:41;;;;;;;;;;;4.80;99.90;;;2.74;99.62;102187.44;4943444;29;20103;-83
2022/01/26 09:22:09;;;;;;;;;;;4.80;99.90;;;2.67;99.67;102176.19;4932012;29;19950;-84
2022/01/26 09:24:38;;;;;;;;;;;4.90;99.90;;;2.62;100.00;102172.06;4932454;29;19927;-86
2022/01/26 09:27:07;;;;;;;;;;;4.90;99.90;;;2.67;100.00;102176.19;4936118;29;19997;-85
2022/01/26 09:29:34;;;;;;;;;;;4.90;99.90;;;2.74;100.00;102188.31;4949510;29;19933;-85
2022/01/26 09:32:02;;;;;;;;;;;4.80;99.90;;;2.73;99.84;102175.81;4957823;28;19932;-85
2022/01/26 09:34:30;;;;;;;;;;;4.90;99.90;;;2.68;100.00;102175.22;4957180;28;20396;-85
2022/01/26 09:36:58;;;;;;;;;;;4.90;99.90;;;2.56;100.00;102173.28;4956556;29;20605;-85
2022/01/26 09:39:25;;;;;;;;;;;4.90;99.90;;;2.57;100.00;102166.97;4951591;29;19973;-85
2022/01/26 09:41:52;;;;;;;;;;;4.90;99.90;;;2.56;100.00;102175.13;4951813;29;19923;-85
2022/01/26 09:44:21;;;;;;;;;;;4.90;99.90;;;2.55;100.00;102168.84;4944691;28;19927;-85
2022/01/26 09:46:49;;;;;;;;;;;4.90;99.90;;;2.67;100.00;102176.19;4943059;28;20413;-85
2022/01/26 09:49:18;;;;;;;;;;;4.90;99.90;;;2.70;100.00;102170.66;4958088;28;19977;-85
2022/01/26 09:51:49;;;;;;;;;;;4.90;99.90;;;2.73;100.00;102167.75;4955005;28;20029;-85
2022/01/26 09:54:18;;;;;;;;;;;4.80;99.90;;;2.76;100.00;102157.78;4939458;29;19962;-85
2022/01/26 09:56:47;;;;;;;;;;;4.90;99.90;;;2.87;100.00;102156.16;4941190;29;19927;-84
2022/01/26 09:59:16;;;;;;;;;;;4.90;99.90;;;2.85;100.00;102152.69;4957504;28;20403;-84
2022/01/26 10:01:44;;;;;;;;;;;4.90;99.90;;;2.88;100.00;102146.28;4947738;28;19937;-85
2022/01/26 10:04:26;;;;;;;;;;;4.90;99.90;;;2.86;100.00;102149.06;4945682;28;19969;-84
2022/01/26 10:07:12;;;;;;;;;;;4.90;99.90;;;2.84;100.00;102150.13;4954414;28;20017;-85
2022/01/26 10:15:31;;;;;;;;;;;4.90;99.90;;;2.68;100.00;102140.28;4938462;29;19927;-85
2022/01/26 10:18:04;;;;;;;;;;;4.90;99.90;;;2.67;100.00;102148.47;4948599;28;20049;-85
2022/01/26 10:20:50;;;;;;;;;;;4.90;99.90;;;2.65;100.00;102147.69;4939004;29;19923;-85
2022/01/26 10:23:20;;;;;;;;;;;4.90;99.90;;;2.70;100.00;102149.13;4938141;29;19926;-85
2022/01/26 10:25:59;;;;;;;;;;;4.90;99.90;;;2.74;100.00;102139.94;4938164;29;20368;-85
2022/01/26 10:28:26;;;;;;;;;;;4.90;99.90;;;2.74;100.00;102145.31;4941584;29;19926;-85
2022/01/26 10:30:53;;;;;;;;;;;5.00;99.90;;;2.82;100.00;102146.63;4941579;29;19978;-85
2022/01/26 10:33:20;;;;;;;;;;;5.00;99.90;;;2.72;100.00;102146.34;4947712;28;19926;-85
2022/01/26 10:35:48;;;;;;;;;;;5.00;99.90;;;2.76;100.00;102152.38;4948500;28;19962;-85
2022/01/26 10:38:15;;;;;;;;;;;5.00;99.90;;;2.70;100.00;102162.59;4951830;28;19996;-85
2022/01/26 10:40:43;;;;;;;;;;;5.00;99.90;;;2.72;100.00;102159.78;4948516;29;19923;-85
2022/01/26 10:43:14;;;;;;;;;;;5.00;99.90;;;2.69;100.00;102152.78;4923148;29;20454;-85
2022/01/26 10:45:51;;;;;;;;;;;5.00;99.90;;;2.76;100.00;102152.38;4952603;29;19934;-85
2022/01/26 10:48:25;;;;;;;;;;;5.10;99.90;;;2.73;100.00;102140.88;4943511;28;19994;-85
2022/01/26 10:54:10;;;;;;;;;;;5.00;99.90;;;2.84;100.00;102159.03;4928122;29;20439;-85
2022/01/26 10:56:40;;;;;;;;;;;5.00;99.90;;;2.84;100.00;102166.25;4933717;29;19981;-85
2022/01/26 10:59:07;;;;;;;;;;;5.00;99.90;;;2.84;100.00;102166.25;4934437;29;19922;-85
2022/01/26 11:01:37;;;;;;;;;;;5.00;99.90;;;2.83;100.00;102161.81;4933292;29;19930;-85
2022/01/26 11:04:05;;;;;;;;;;;5.00;99.90;;;2.82;100.00;102160.06;4949020;29;19927;-85
2022/01/26 11:06:32;;;;;;;;;;;5.10;99.90;;;2.91;100.00;102164.91;4953717;29;19923;-85
2022/01/26 11:09:02;;;;;;;;;;;5.10;99.90;;;2.94;100.00;102153.97;4939938;29;19930;-85
2022/01/26 11:11:29;;;;;;;;;;;5.10;99.90;;;2.91;100.00;102168.47;4934606;29;19961;-84
2022/01/26 11:13:57;;;;;;;;;;;5.10;99.90;;;2.90;100.00;102169.41;4946767;29;19981;-84
2022/01/26 11:16:24;;;;;;;;;;;5.10;99.90;;;2.95;100.00;102179.88;4952104;29;19970;-84
2022/01/26 11:18:53;;;;;;;;;;;5.10;99.90;;;2.98;100.00;102185.09;4945607;29;19926;-86
2022/01/26 11:21:29;;;;;;;;;;;5.10;99.90;;;2.99;100.00;102181.44;4953613;28;19926;-86
2022/01/26 11:24:23;;;;;;;;;;;5.10;99.90;;;2.97;100.00;102186.06;4950628;23;19930;-93
2022/01/26 11:27:03;;;;;;;;;;;5.10;99.90;;;2.93;100.00;102180.00;4932160;29;19926;-88
2022/01/26 11:29:35;;;;;;;;;;;5.10;99.90;;;2.97;100.00;102177.09;4945158;28;19927;-90
2022/01/26 11:32:06;;;;;;;;;;;5.10;99.90;;;3.01;100.00;102171.47;4946471;29;19930;-90
2022/01/26 11:34:34;;;;;;;;;;;5.10;99.90;;;2.95;100.00;102163.75;4915571;29;19930;-90
2022/01/26 11:37:04;;;;;;;;;;;5.10;99.90;;;2.98;100.00;102162.72;4911633;29;19954;-89
2022/01/26 11:45:15;;;;;;;;;;;5.20;99.90;;;2.91;100.00;102149.66;4896284;29;20025;-90
2022/01/26 11:47:44;;;;;;;;;;;5.10;99.90;;;2.90;100.00;102161.34;4911054;29;19923;-90
2022/01/26 11:50:14;;;;;;;;;;;5.10;99.90;;;2.99;100.00;102157.25;4913872;29;19945;-90
2022/01/26 11:52:44;;;;;;;;;;;5.10;99.90;;;3.00;100.00;102156.25;4912469;29;19927;-91
2022/01/26 11:55:30;;;;;;;;;;;5.20;99.90;;;2.94;100.00;102152.13;4913852;29;20439;-89
2022/01/26 11:58:07;;;;;;;;;;;5.10;99.90;;;2.90;100.00;102160.50;4898332;29;19931;-91
2022/01/26 12:00:45;;;;;;;;;;;5.20;99.90;;;2.94;100.00;102156.66;4926656;29;20406;-90
2022/01/26 12:03:27;;;;;;;;;;;5.20;99.90;;;2.93;100.00;102157.59;4929169;29;19930;-90
2022/01/26 12:05:57;;;;;;;;;;;5.20;99.90;;;2.94;100.00;102154.81;4915054;29;19923;-91
2022/01/26 12:08:33;;;;;;;;;;;5.20;99.90;;;2.99;100.00;102149.19;4914691;29;19923;-91
2022/01/26 12:11:01;;;;;;;;;;;5.20;99.90;;;3.05;100.00;102146.09;4913704;29;19927;-89
2022/01/26 12:13:30;;;;;;;;;;;5.20;99.90;;;3.00;100.00;102145.50;4911753;29;19945;-90
2022/01/26 12:16:06;;;;;;;;;;;5.20;99.90;;;3.04;100.00;102146.19;4913310;29;19938;-89
2022/01/26 12:18:37;;;;;;;;;;;5.20;99.90;;;2.93;100.00;102152.22;4911841;29;19931;-90
2022/01/26 12:35:22;;;;;;;;;;;5.30;99.90;;;3.01;100.00;102109.59;4913004;29;19927;-91
2022/01/26 12:37:58;;;;;;;;;;;5.30;99.90;;;3.16;100.00;102112.25;4914227;29;19923;-92
2022/01/26 12:43:16;;;;;;;;;;;5.30;99.90;;;3.17;100.00;102103.25;4910373;29;20411;-91
2022/01/26 12:45:45;;;;;;;;;;;5.30;99.90;;;3.18;100.00;102099.59;4895178;29;19935;-91
2022/01/26 12:48:17;;;;;;;;;;;5.30;99.90;;;3.22;100.00;102102.00;4895825;29;20373;-91
2022/01/26 12:50:44;;;;;;;;;;;5.30;99.90;;;3.26;100.00;102108.06;4898728;29;19923;-91
2022/01/26 12:53:11;;;;;;;;;;;5.30;99.90;;;3.22;100.00;102111.88;4913596;29;19927;-91
2022/01/26 12:55:39;;;;;;;;;;;5.30;99.90;;;3.19;100.00;102106.72;4912834;29;19987;-91
2022/01/26 12:58:07;;;;;;;;;;;5.30;99.90;;;3.17;100.00;102116.69;4912008;29;19926;-93
2022/01/26 13:00:39;;;;;;;;;;;5.30;99.90;;;3.11;100.00;102112.56;4912113;29;19967;-91
2022/01/26 13:03:10;;;;;;;;;;;5.30;99.90;;;3.05;100.00;102110.28;4914587;29;19926;-92
2022/01/26 13:05:39;;;;;;;;;;;5.30;99.90;;;3.12;100.00;102106.22;4914313;29;19934;-91
2022/01/26 13:08:08;;;;;;;;;;;5.30;99.90;;;3.18;100.00;102110.34;4913211;29;20392;-92
2022/01/26 13:10:35;;;;;;;;;;;5.30;99.90;;;3.02;100.00;102105.94;4905646;29;19928;-92
2022/01/26 13:13:14;;;;;;;;;;;5.30;99.90;;;3.03;100.00;102091.53;4894510;29;20357;-91
2022/01/26 13:15:54;;;;;;;;;;;5.30;99.90;;;2.99;100.00;102084.63;4902182;29;19990;-91
2022/01/26 13:24:28;;;;;;;;;;;5.30;99.90;;;3.11;100.00;102073.06;5094079;28;20273;-89
2022/01/26 13:27:04;;;;;;;;;;;5.30;99.90;;;3.17;100.00;102068.28;5124269;28;20524;-92
2022/01/26 13:29:42;;;;;;;;;;;5.30;99.90;;;3.09;100.00;102052.63;5126302;28;19961;-90